Terminal Aerodrome Forecast
Issued by NWS

Home | Current Version | Previous Version | Graphics & Text | Print | Product List | Glossary On
Versions: 1 2 3 4 5 6 7 8 9 10 11 12 13 14 15 16 17 18 19 20 21
000
FTUS43 KMPX 240717 AAA
TAFRWF
TAF AMD
KRWF 240717Z 2407/2506 27010KT 2SM BR BKN002 OVC007
      TEMPO 2407/2410 3/4SM BR VV002
     FM241000 03010KT P6SM BKN007
     FM241200 15010KT P6SM BKN250
     FM241600 18014G23KT P6SM SCT050 BKN250
     FM242100 19014G22KT P6SM VCSH SCT050 BKN200
     FM250000 19008KT P6SM SHRA BKN090
     FM250400 25005KT P6SM SHRA OVC025=

USA.gov is the U.S. government's official web portal to all federal, state and local government web resources and services.